Minto Bridge, Canada
Current Conditions -  °F | °C
As of 1:00 AM on Wednesday 22 Oct 2014 (Local Time) from CYMA Reporting Station
Broken Clouds Broken Clouds  
Wind Chill: 26°   Ceiling: 9000
Heat Index: 34°   Visibility: 20mi
Dew Point: 27°   Wind: 9mph
Humidity: 75%   Direction: 30°NNE
Pressure: 29.39"   Gusts: 18mph
Location:  63.7°N, 135.85°W
Report Text: CYMA 220800Z 03008G16KT 20SM BKN090 01/M03 A2939 RMK AS7 SLP978
Loading
Personal Weather Stations






























Interactive Weather Map
Tropical Storm Tracking
New forecast layout! Learn more

10-Day Weather Forecast

Advertisements
Track Severe Weather on mobile